createdAt,value
2023-03-13T00:01:42.014Z,4.63
2023-03-13T00:06:49.710Z,3.08
2023-03-13T00:09:18.128Z,3.97
2023-03-13T00:11:48.409Z,4.18
2023-03-13T00:14:21.615Z,3.45
2023-03-13T00:16:48.827Z,4.90
2023-03-13T00:19:16.267Z,4.30
2023-03-13T00:21:43.752Z,3.70
2023-03-13T00:24:12.338Z,5.70
2023-03-13T00:26:41.878Z,4.22
2023-03-13T00:29:09.168Z,5.05
2023-03-13T00:31:37.602Z,5.32
2023-03-13T00:34:05.433Z,6.50
2023-03-13T00:36:34.309Z,5.68
2023-03-13T00:39:16.665Z,6.47
2023-03-13T00:41:49.015Z,5.95
2023-03-13T00:44:16.413Z,6.70
2023-03-13T00:46:43.767Z,6.78
2023-03-13T00:49:11.104Z,6.63
2023-03-13T00:51:39.512Z,4.78
2023-03-13T00:54:06.721Z,7.57
2023-03-13T00:56:37.306Z,5.32
2023-03-13T00:59:06.611Z,6.03
2023-03-13T01:01:36.139Z,8.60
2023-03-13T01:04:12.864Z,5.75
2023-03-13T01:06:43.110Z,8.63
2023-03-13T01:09:13.222Z,4.97
2023-03-13T01:11:42.285Z,7.43
2023-03-13T01:14:19.940Z,6.70
2023-03-13T01:16:47.562Z,6.78
2023-03-13T01:19:15.428Z,5.43
2023-03-13T01:21:43.709Z,8.50
2023-03-13T01:24:12.504Z,4.47
2023-03-13T01:26:39.648Z,5.53
2023-03-13T01:29:06.990Z,5.25
2023-03-13T01:31:35.192Z,7.97
2023-03-13T01:34:04.468Z,6.90
2023-03-13T01:36:34.163Z,8.90
2023-03-13T01:39:01.779Z,7.13
2023-03-13T01:41:31.819Z,6.85
2023-03-13T01:44:00.444Z,6.50
2023-03-13T01:46:30.086Z,8.13
2023-03-13T01:49:01.581Z,8.35
2023-03-13T01:51:37.962Z,7.85
2023-03-13T01:54:13.519Z,6.72
2023-03-13T01:56:57.284Z,4.82
2023-03-13T01:59:38.297Z,6.60
2023-03-13T02:02:06.161Z,6.90
2023-03-13T02:04:37.211Z,7.72
2023-03-13T02:07:08.008Z,7.00
2023-03-13T02:09:36.909Z,6.05
2023-03-13T02:12:07.952Z,5.63
2023-03-13T02:14:36.304Z,6.35
2023-03-13T02:17:13.509Z,6.57
2023-03-13T02:19:41.983Z,4.65
2023-03-13T02:22:16.437Z,6.07
2023-03-13T02:24:43.522Z,6.15
2023-03-13T02:27:15.525Z,4.78
2023-03-13T02:29:43.507Z,7.38
2023-03-13T02:32:11.198Z,5.70
2023-03-13T02:34:41.775Z,5.00
2023-03-13T02:37:13.062Z,5.63
2023-03-13T02:42:26.888Z,4.25
2023-03-13T02:45:05.492Z,4.05
2023-03-13T02:47:33.715Z,4.93
2023-03-13T02:50:02.182Z,3.97
2023-03-13T02:52:40.349Z,3.42
2023-03-13T02:55:11.333Z,4.13
2023-03-13T02:57:40.582Z,3.83
2023-03-13T03:00:12.816Z,3.35
2023-03-13T03:02:40.259Z,4.20
2023-03-13T03:05:08.803Z,3.92
2023-03-13T03:07:41.058Z,4.68
2023-03-13T03:10:08.529Z,4.40
2023-03-13T03:12:35.984Z,4.07
2023-03-13T03:15:04.975Z,4.10
2023-03-13T03:17:32.340Z,3.28
2023-03-13T03:20:00.606Z,4.68
2023-03-13T03:22:34.793Z,4.72
2023-03-13T03:25:04.768Z,4.60
2023-03-13T03:27:34.195Z,5.85
2023-03-13T03:30:08.711Z,4.82
2023-03-13T03:32:35.891Z,3.50
2023-03-13T03:35:04.298Z,3.92
2023-03-13T03:37:31.558Z,4.47
2023-03-13T03:40:06.796Z,4.10
2023-03-13T03:42:35.130Z,4.32
2023-03-13T03:45:08.790Z,4.55
2023-03-13T03:47:40.309Z,3.95
2023-03-13T03:50:14.429Z,3.17
2023-03-13T03:52:41.805Z,3.70
2023-03-13T03:55:14.955Z,3.22
2023-03-13T03:57:43.274Z,4.90
2023-03-13T04:00:12.110Z,3.80
2023-03-13T04:02:39.223Z,4.05
2023-03-13T04:05:46.547Z,5.15
2023-03-13T04:08:24.056Z,4.15
2023-03-13T04:10:51.363Z,3.60
2023-03-13T04:13:20.553Z,4.53
2023-03-13T04:15:53.986Z,4.30
2023-03-13T04:18:27.250Z,3.80
2023-03-13T04:21:06.484Z,3.85
2023-03-13T04:23:35.131Z,3.80
2023-03-13T04:26:03.428Z,3.03
2023-03-13T04:28:32.659Z,2.90
2023-03-13T04:31:04.218Z,3.42
2023-03-13T04:33:42.527Z,2.75
2023-03-13T04:36:17.723Z,2.10
2023-03-13T04:38:47.039Z,2.53
2023-03-13T04:41:17.517Z,2.17
2023-03-13T04:43:51.933Z,2.88
2023-03-13T04:46:20.305Z,2.58
2023-03-13T04:48:57.619Z,2.67
2023-03-13T04:51:25.941Z,2.28
2023-03-13T04:53:53.253Z,2.60
2023-03-13T04:56:41.838Z,2.60
2023-03-13T04:59:12.404Z,2.97
2023-03-13T05:01:39.926Z,2.08
2023-03-13T05:04:08.609Z,2.50
2023-03-13T05:06:38.074Z,2.33
2023-03-13T05:09:05.500Z,2.60
2023-03-13T05:11:40.346Z,2.70
2023-03-13T05:14:11.075Z,3.35
2023-03-13T05:16:48.411Z,2.00
2023-03-13T05:19:15.733Z,2.10
2023-03-13T05:21:46.180Z,2.05
2023-03-13T05:24:13.490Z,3.00
2023-03-13T05:26:40.917Z,1.73
2023-03-13T05:29:08.241Z,2.55
2023-03-13T05:31:43.622Z,2.80
2023-03-13T05:34:11.003Z,2.47
2023-03-13T05:36:41.517Z,2.53
2023-03-13T05:39:14.637Z,3.00
2023-03-13T05:42:00.279Z,3.22
2023-03-13T05:44:27.919Z,2.72
2023-03-13T05:46:55.117Z,2.53
2023-03-13T05:49:37.473Z,2.10
2023-03-13T05:52:10.733Z,2.60
2023-03-13T05:54:44.186Z,2.28
2023-03-13T05:57:27.470Z,2.30
2023-03-13T06:00:05.610Z,2.00
2023-03-13T06:02:32.798Z,2.20
2023-03-13T06:05:13.918Z,2.42
2023-03-13T06:07:42.120Z,2.35
2023-03-13T06:10:18.486Z,2.45
2023-03-13T06:13:18.728Z,2.50
2023-03-13T06:15:56.046Z,2.60
2023-03-13T06:18:23.506Z,2.00
2023-03-13T06:20:56.783Z,3.17
2023-03-13T06:23:27.715Z,3.05
2023-03-13T06:25:55.339Z,2.60
2023-03-13T06:28:54.713Z,1.95
2023-03-13T06:31:32.699Z,2.22
2023-03-13T06:34:06.247Z,2.35
2023-03-13T06:36:33.540Z,1.85
2023-03-13T06:39:04.595Z,2.10
2023-03-13T06:41:40.448Z,2.28
2023-03-13T06:44:13.780Z,2.65
2023-03-13T06:46:47.037Z,1.90
2023-03-13T06:49:16.466Z,3.30
2023-03-13T06:51:50.560Z,2.80
2023-03-13T06:54:25.750Z,2.75
2023-03-13T06:57:04.413Z,2.67
2023-03-13T06:59:31.721Z,3.10
2023-03-13T07:02:07.134Z,2.95
2023-03-13T07:04:40.789Z,2.90
2023-03-13T07:07:14.975Z,2.95
2023-03-13T07:09:50.910Z,2.72
2023-03-13T07:12:25.055Z,2.15
2023-03-13T07:14:52.191Z,2.92
2023-03-13T07:17:20.547Z,3.40
2023-03-13T07:19:49.096Z,2.65
2023-03-13T07:22:22.147Z,2.85
2023-03-13T07:24:52.676Z,2.92
2023-03-13T07:27:21.282Z,3.22
2023-03-13T07:29:57.465Z,2.38
2023-03-13T07:32:25.742Z,2.00
2023-03-13T07:34:56.221Z,3.25
2023-03-13T07:37:31.207Z,2.58
2023-03-13T07:40:05.733Z,2.67
2023-03-13T07:42:34.207Z,2.47
2023-03-13T07:45:09.917Z,2.47
2023-03-13T07:47:37.336Z,3.05
2023-03-13T07:50:04.773Z,3.35
2023-03-13T07:52:33.322Z,2.88
2023-03-13T07:55:02.810Z,2.53
2023-03-13T07:57:30.115Z,2.88
2023-03-13T07:59:57.338Z,2.70
2023-03-13T08:02:24.545Z,2.55
2023-03-13T08:05:00.109Z,2.30
2023-03-13T08:07:27.257Z,3.00
2023-03-13T08:09:55.491Z,3.05
2023-03-13T08:12:22.634Z,2.40
2023-03-13T08:14:49.870Z,3.33
2023-03-13T08:17:22.064Z,2.85
2023-03-13T08:19:53.487Z,2.70
2023-03-13T08:22:21.789Z,2.95
2023-03-13T08:24:50.924Z,2.13
2023-03-13T08:27:18.327Z,2.80
2023-03-13T08:29:49.080Z,2.17
2023-03-13T08:32:18.385Z,2.70
2023-03-13T08:34:45.797Z,2.83
2023-03-13T08:37:18.183Z,2.60
2023-03-13T08:39:48.566Z,2.42
2023-03-13T08:42:15.690Z,3.65
2023-03-13T08:48:15.815Z,1.63
2023-03-13T08:50:48.161Z,1.90
2023-03-13T08:53:16.406Z,1.73
2023-03-13T08:55:54.073Z,2.03
2023-03-13T08:58:21.447Z,1.23
2023-03-13T09:00:50.807Z,1.92
2023-03-13T09:03:18.140Z,1.40
2023-03-13T09:05:55.922Z,1.23
2023-03-13T09:08:34.279Z,1.45
2023-03-13T09:11:13.989Z,1.08
2023-03-13T09:13:43.417Z,1.45
2023-03-13T09:16:12.182Z,1.60
2023-03-13T09:18:57.362Z,1.38
2023-03-13T09:21:25.585Z,1.80
2023-03-13T09:23:54.073Z,1.23
2023-03-13T09:26:46.518Z,1.50
2023-03-13T09:29:19.205Z,1.42
2023-03-13T09:31:46.573Z,1.63
2023-03-13T09:34:20.743Z,1.77
2023-03-13T09:36:48.948Z,1.40
2023-03-13T09:39:16.379Z,1.17
2023-03-13T09:42:03.364Z,1.02
2023-03-13T09:44:34.900Z,1.23
2023-03-13T09:47:26.952Z,1.05
2023-03-13T09:50:12.940Z,1.23
2023-03-13T09:52:41.094Z,1.50
2023-03-13T09:55:27.275Z,1.30
2023-03-13T09:58:21.294Z,1.30
2023-03-13T10:00:57.698Z,1.45
2023-03-13T10:03:28.551Z,1.83
2023-03-13T10:06:05.100Z,1.25
2023-03-13T10:08:35.067Z,1.23
2023-03-13T10:11:05.487Z,1.30
2023-03-13T10:13:52.650Z,1.15
2023-03-13T10:16:27.337Z,1.80
2023-03-13T10:19:00.118Z,1.55
2023-03-13T10:21:33.261Z,1.60
2023-03-13T10:24:00.354Z,1.33
2023-03-13T10:26:35.524Z,1.65
2023-03-13T10:29:12.504Z,1.85
2023-03-13T10:31:43.122Z,1.27
2023-03-13T10:34:12.710Z,1.00
2023-03-13T10:36:48.967Z,1.58
2023-03-13T10:39:17.186Z,1.55
2023-03-13T10:41:52.376Z,1.40
2023-03-13T10:44:21.964Z,1.40
2023-03-13T10:46:50.708Z,1.48
2023-03-13T10:49:23.497Z,1.30
2023-03-13T10:51:56.203Z,1.08
2023-03-13T10:54:37.872Z,1.02
2023-03-13T10:57:10.887Z,1.52
2023-03-13T10:59:46.818Z,1.05
2023-03-13T11:03:05.509Z,1.55
2023-03-13T11:06:08.614Z,1.30
2023-03-13T11:08:37.110Z,1.30
2023-03-13T11:11:06.768Z,1.80
2023-03-13T11:13:37.694Z,1.33
2023-03-13T11:16:19.140Z,1.40
2023-03-13T11:19:08.894Z,1.10
2023-03-13T11:21:43.601Z,1.08
2023-03-13T11:24:21.963Z,1.27
2023-03-13T11:27:05.497Z,1.35
2023-03-13T11:29:58.759Z,1.05
2023-03-13T11:32:45.388Z,1.30
2023-03-13T11:35:35.931Z,1.00
2023-03-13T11:38:08.391Z,1.30
2023-03-13T11:40:57.106Z,1.20
2023-03-13T11:43:26.329Z,1.50
2023-03-13T11:46:09.645Z,1.50
2023-03-13T11:48:38.147Z,1.73
2023-03-13T11:51:23.868Z,1.90
2023-03-13T11:54:05.073Z,1.02
2023-03-13T11:57:07.236Z,1.70
2023-03-13T11:59:56.394Z,1.65
2023-03-13T12:02:26.040Z,1.63
2023-03-13T12:05:02.110Z,1.50
2023-03-13T12:07:50.306Z,1.48
2023-03-13T12:10:25.398Z,1.40
2023-03-13T12:13:12.764Z,1.55
2023-03-13T12:15:52.844Z,1.58
2023-03-13T12:18:33.372Z,1.27
2023-03-13T12:21:10.105Z,1.33
2023-03-13T12:23:47.462Z,2.25
2023-03-13T12:26:16.977Z,2.28
2023-03-13T12:28:46.495Z,1.77
2023-03-13T12:31:18.402Z,2.05
2023-03-13T12:33:49.057Z,1.88
2023-03-13T12:36:23.398Z,2.03
2023-03-13T12:38:54.454Z,1.55
2023-03-13T12:41:24.811Z,1.77
2023-03-13T12:44:07.771Z,1.85
2023-03-13T12:46:44.785Z,1.88
2023-03-13T12:49:31.980Z,1.40
2023-03-13T12:52:12.603Z,1.70
2023-03-13T12:55:01.020Z,2.70
2023-03-13T12:57:47.255Z,2.03
2023-03-13T13:00:26.640Z,1.67
2023-03-13T13:03:07.147Z,2.50
2023-03-13T13:05:34.492Z,2.28
2023-03-13T13:08:05.033Z,1.83
2023-03-13T13:10:32.343Z,2.95
2023-03-13T13:13:22.240Z,2.40
2023-03-13T13:16:04.382Z,2.05
2023-03-13T13:18:34.671Z,2.65
2023-03-13T13:21:20.980Z,2.97
2023-03-13T13:23:54.162Z,3.42
2023-03-13T13:26:33.851Z,2.65
2023-03-13T13:29:25.277Z,3.45
2023-03-13T13:31:56.741Z,1.92
2023-03-13T13:34:34.526Z,2.75
2023-03-13T13:37:04.418Z,3.00
2023-03-13T13:39:50.215Z,3.25
2023-03-13T13:42:41.841Z,2.85
2023-03-13T13:45:18.194Z,2.65
2023-03-13T13:47:46.896Z,2.92
2023-03-13T13:50:27.283Z,2.20
2023-03-13T13:53:15.522Z,3.30
2023-03-13T13:55:51.860Z,2.63
2023-03-13T13:58:24.480Z,2.88
2023-03-13T14:01:11.261Z,2.63
2023-03-13T14:03:43.218Z,2.40
2023-03-13T14:06:18.108Z,3.35
2023-03-13T14:08:46.331Z,2.40
2023-03-13T14:11:31.440Z,2.95
2023-03-13T14:14:13.782Z,3.00
2023-03-13T14:17:00.170Z,3.80
2023-03-13T14:19:30.541Z,3.47
2023-03-13T14:22:07.294Z,3.80
2023-03-13T14:24:37.106Z,2.15
2023-03-13T14:27:24.698Z,2.75
2023-03-13T14:30:21.338Z,2.53
2023-03-13T14:32:48.888Z,2.97
2023-03-13T14:35:23.484Z,3.03
2023-03-13T14:37:54.386Z,2.85
2023-03-13T14:43:01.071Z,2.10
2023-03-13T14:45:41.728Z,2.83
2023-03-13T14:48:31.922Z,3.80
2023-03-13T14:51:20.946Z,2.92
2023-03-13T14:54:04.366Z,2.70
2023-03-13T14:56:38.772Z,2.83
2023-03-13T14:59:14.574Z,3.38
2023-03-13T15:01:58.877Z,3.00
2023-03-13T15:04:46.061Z,3.17
2023-03-13T15:07:15.513Z,2.42
2023-03-13T15:09:43.467Z,3.08
2023-03-13T15:12:16.533Z,3.33
2023-03-13T15:14:45.004Z,2.22
2023-03-13T15:17:19.630Z,2.60
2023-03-13T15:19:51.941Z,2.42
2023-03-13T15:22:22.901Z,2.55
2023-03-13T15:27:33.542Z,3.47
2023-03-13T15:30:06.860Z,2.25
2023-03-13T15:32:39.148Z,2.80
2023-03-13T15:35:32.401Z,3.30
2023-03-13T15:38:07.635Z,3.30
2023-03-13T15:40:36.149Z,3.00
2023-03-13T15:43:04.453Z,3.35
2023-03-13T15:45:31.597Z,3.00
2023-03-13T15:48:28.094Z,2.10
2023-03-13T15:51:04.095Z,3.30
2023-03-13T15:53:35.853Z,2.42
2023-03-13T15:56:12.565Z,2.83
2023-03-13T15:58:46.897Z,3.50
2023-03-13T16:01:15.888Z,4.53
2023-03-13T16:03:43.169Z,3.03
2023-03-13T16:06:19.891Z,2.90
2023-03-13T16:08:51.351Z,3.40
2023-03-13T16:11:31.596Z,3.13
2023-03-13T16:14:00.932Z,3.60
2023-03-13T16:16:36.950Z,3.00
2023-03-13T16:19:11.977Z,2.55
2023-03-13T16:21:48.632Z,2.75
2023-03-13T16:24:17.602Z,2.75
2023-03-13T16:26:52.088Z,3.45
2023-03-13T16:29:19.254Z,3.55
2023-03-13T16:31:46.483Z,3.35
2023-03-13T16:34:13.597Z,3.50
2023-03-13T16:36:45.062Z,3.97
2023-03-13T16:39:14.534Z,3.22
2023-03-13T16:41:44.735Z,2.65
2023-03-13T16:44:11.980Z,3.20
2023-03-13T16:47:04.201Z,3.72
2023-03-13T16:49:32.130Z,4.70
2023-03-13T16:51:59.403Z,3.35
2023-03-13T16:54:26.480Z,3.40
2023-03-13T16:57:00.327Z,2.95
2023-03-13T16:59:28.461Z,3.30
2023-03-13T17:02:04.773Z,4.97
2023-03-13T17:04:32.211Z,3.13
2023-03-13T17:07:03.804Z,3.10
2023-03-13T17:09:32.030Z,2.95
2023-03-13T17:11:59.366Z,4.50
2023-03-13T17:14:27.143Z,4.60
2023-03-13T17:16:56.514Z,3.47
2023-03-13T17:19:31.203Z,4.13
2023-03-13T17:21:59.592Z,4.38
2023-03-13T17:24:26.996Z,4.38
2023-03-13T17:26:58.807Z,4.82
2023-03-13T17:29:33.991Z,5.53
2023-03-13T17:32:06.170Z,5.40
2023-03-13T17:34:33.667Z,6.13
2023-03-13T17:37:04.935Z,3.83
2023-03-13T17:39:32.366Z,5.18
2023-03-13T17:42:00.319Z,5.15
2023-03-13T17:44:27.777Z,5.75
2023-03-13T17:46:54.984Z,5.13
2023-03-13T17:49:22.372Z,4.25
2023-03-13T17:51:51.281Z,4.32
2023-03-13T17:54:19.544Z,5.28
2023-03-13T17:56:46.654Z,3.40
2023-03-13T17:59:19.204Z,4.20
2023-03-13T18:01:46.521Z,3.95
2023-03-13T18:04:13.980Z,3.08
2023-03-13T18:06:54.167Z,4.47
2023-03-13T18:09:23.512Z,3.58
2023-03-13T18:11:53.839Z,3.63
2023-03-13T18:14:25.139Z,4.27
2023-03-13T18:16:57.118Z,4.55
2023-03-13T18:19:26.371Z,4.25
2023-03-13T18:21:56.359Z,3.70
2023-03-13T18:24:23.538Z,4.60
2023-03-13T18:26:53.894Z,4.03
2023-03-13T18:29:27.817Z,3.60
2023-03-13T18:32:22.766Z,4.65
2023-03-13T18:34:51.984Z,4.10
2023-03-13T18:37:47.051Z,3.70
2023-03-13T18:40:28.682Z,5.88
2023-03-13T18:42:57.045Z,6.60
2023-03-13T18:45:26.603Z,6.55
2023-03-13T18:47:54.035Z,6.90
2023-03-13T18:50:26.093Z,6.32
2023-03-13T18:53:00.177Z,6.20
2023-03-13T18:55:28.997Z,6.25
2023-03-13T18:57:56.601Z,5.38
2023-03-13T19:00:25.580Z,4.05
2023-03-13T19:02:54.922Z,4.60
2023-03-13T19:05:26.643Z,4.20
2023-03-13T19:08:03.814Z,3.28
2023-03-13T19:10:31.548Z,2.55
2023-03-13T19:13:00.085Z,4.22
2023-03-13T19:15:29.824Z,3.33
2023-03-13T19:18:01.799Z,3.17
2023-03-13T19:20:42.440Z,3.70
2023-03-13T19:23:18.581Z,3.20
2023-03-13T19:25:49.124Z,3.30
2023-03-13T19:28:23.190Z,4.15
2023-03-13T19:30:50.321Z,3.25
2023-03-13T19:33:18.465Z,3.38
2023-03-13T19:35:45.641Z,3.03
2023-03-13T19:38:13.892Z,3.97
2023-03-13T19:40:41.268Z,3.47
2023-03-13T19:43:08.554Z,3.50
2023-03-13T19:45:39.007Z,3.28
2023-03-13T19:48:07.316Z,3.90
2023-03-13T19:50:36.883Z,3.88
2023-03-13T19:53:04.214Z,4.00
2023-03-13T19:55:31.605Z,2.83
2023-03-13T19:57:58.741Z,3.42
2023-03-13T20:00:32.037Z,3.58
2023-03-13T20:02:59.544Z,5.57
2023-03-13T20:05:27.401Z,4.78
2023-03-13T20:07:54.538Z,3.03
2023-03-13T20:10:22.433Z,3.28
2023-03-13T20:12:49.900Z,3.97
2023-03-13T20:15:17.995Z,5.05
2023-03-13T20:17:45.430Z,4.53
2023-03-13T20:20:14.681Z,3.92
2023-03-13T20:22:43.005Z,4.25
2023-03-13T20:25:11.758Z,3.47
2023-03-13T20:27:41.053Z,3.97
2023-03-13T20:30:09.912Z,3.47
2023-03-13T20:32:49.093Z,3.15
2023-03-13T20:35:30.213Z,3.28
2023-03-13T20:37:59.689Z,3.63
2023-03-13T20:40:36.043Z,3.13
2023-03-13T20:43:09.084Z,3.45
2023-03-13T20:45:42.372Z,3.97
2023-03-13T20:48:09.652Z,3.78
2023-03-13T20:50:37.334Z,3.90
2023-03-13T20:53:04.765Z,3.60
2023-03-13T20:55:32.700Z,2.90
2023-03-13T20:58:03.000Z,3.63
2023-03-13T21:00:38.597Z,3.43
2023-03-13T21:03:06.306Z,3.50
2023-03-13T21:05:42.441Z,3.72
2023-03-13T21:08:15.796Z,2.80
2023-03-13T21:11:05.987Z,4.15
2023-03-13T21:13:33.382Z,3.22
2023-03-13T21:16:03.226Z,3.40
2023-03-13T21:18:30.370Z,3.72
2023-03-13T21:21:03.714Z,3.80
2023-03-13T21:23:31.955Z,3.10
2023-03-13T21:26:00.553Z,2.78
2023-03-13T21:28:34.411Z,3.72
2023-03-13T21:31:15.246Z,3.10
2023-03-13T21:33:46.762Z,3.38
2023-03-13T21:36:23.202Z,4.22
2023-03-13T21:38:57.851Z,4.15
2023-03-13T21:41:25.040Z,3.20
2023-03-13T21:43:52.880Z,4.88
2023-03-13T21:46:21.806Z,4.53
2023-03-13T21:48:57.433Z,4.65
2023-03-13T21:51:25.771Z,4.03
2023-03-13T21:54:00.236Z,3.80
2023-03-13T21:56:35.334Z,3.92
2023-03-13T21:59:08.448Z,3.38
2023-03-13T22:01:40.777Z,4.60
2023-03-13T22:04:07.896Z,3.45
2023-03-13T22:06:38.471Z,4.13
2023-03-13T22:09:12.614Z,3.75
2023-03-13T22:11:41.846Z,4.00
2023-03-13T22:14:10.123Z,5.05
2023-03-13T22:16:37.489Z,6.97
2023-03-13T22:19:05.378Z,8.77
2023-03-13T22:21:32.560Z,6.45
2023-03-13T22:23:59.970Z,5.07
2023-03-13T22:26:31.565Z,5.70
2023-03-13T22:28:59.773Z,4.35
2023-03-13T22:31:33.896Z,3.17
2023-03-13T22:34:01.228Z,4.00
2023-03-13T22:36:28.643Z,3.05
2023-03-13T22:38:55.996Z,3.13
2023-03-13T22:41:24.277Z,4.22
2023-03-13T22:43:54.770Z,3.83
2023-03-13T22:46:29.249Z,3.67
2023-03-13T22:48:57.460Z,4.10
2023-03-13T22:51:32.433Z,3.05
2023-03-13T22:54:00.714Z,3.75
2023-03-13T22:56:29.103Z,3.92
2023-03-13T22:58:59.772Z,3.45
2023-03-13T23:01:26.975Z,4.00
2023-03-13T23:03:54.146Z,3.45
2023-03-13T23:06:24.352Z,4.35
2023-03-13T23:08:52.313Z,3.03
2023-03-13T23:11:23.300Z,3.05
2023-03-13T23:13:52.065Z,3.47
2023-03-13T23:16:19.809Z,3.90
2023-03-13T23:18:47.412Z,2.45
2023-03-13T23:21:15.445Z,3.40
2023-03-13T23:23:44.955Z,3.28
2023-03-13T23:26:15.177Z,3.55
2023-03-13T23:28:43.654Z,3.55
2023-03-13T23:31:14.322Z,3.17
2023-03-13T23:33:52.931Z,2.38
2023-03-13T23:36:38.412Z,2.42
2023-03-13T23:39:05.767Z,1.88
2023-03-13T23:41:34.918Z,3.10
2023-03-13T23:44:03.139Z,2.10
2023-03-13T23:46:30.362Z,2.58
2023-03-13T23:49:03.490Z,2.03
2023-03-13T23:51:34.920Z,2.28
2023-03-13T23:54:03.053Z,2.38
2023-03-13T23:56:31.452Z,2.92
2023-03-13T23:58:59.634Z,2.30
